Weather observations for the past three days for
McMinnville, McMinnville Municipal Airport
| Date | Time (pdt) | Wind (kph) | Vis. (km) | Weather | Sky Cond. | Temperature (ºC) | Relative Humidity | Wind Chill (°C) | Heat Index (°C) | Pressure | Precipitation (cm) | ||||||
|---|---|---|---|---|---|---|---|---|---|---|---|---|---|---|---|---|---|
| Air | Dwpt | 6 hour | altimeter (cm) | sea level (mb) | 1 hr | 3 hr | 6 hr | ||||||||||
| Max. | Min. | ||||||||||||||||
| 01 | 11:53 | Vrbl 6 | 16.09 | Overcast | BKN027 OVC035 | 18.9 | 12.2 | 65% | 75.9 | 1011.5 | |||||||
| 01 | 10:53 | Calm | 16.09 | Overcast | FEW019 SCT025 OVC042 | 17.8 | 12.2 | 17.8 | 13.9 | 70% | 75.9 | 1011.7 | |||||
| 01 | 09:53 | S 7 | 16.09 | Overcast | BKN023 BKN029 OVC040 | 16.7 | 12.2 | 75% | 75.9 | 1011.6 | |||||||
| 01 | 08:53 | Calm | 16.09 | Overcast | FEW022 SCT030 OVC040 | 15.6 | 12.2 | 80% | 75.9 | 1011.8 | |||||||
| 01 | 07:53 | Calm | 16.09 | Overcast | OVC035 | 14.4 | 11.7 | 84% | 75.9 | 1011.6 | |||||||
| 01 | 06:53 | Calm | 16.09 | Overcast | OVC033 | 13.9 | 11.7 | 87% | 75.87 | 1011.3 | |||||||
| 01 | 05:53 | Calm | 16.09 | Overcast | OVC031 | 13.9 | 11.7 | 87% | 75.84 | 1011.0 | |||||||
| 01 | 04:53 | SW 6 | 16.09 | Mostly Cloudy | BKN034 | 13.9 | 11.1 | 15.6 | 13.3 | 83% | 75.84 | 1011.0 | |||||
| 01 | 03:53 | SW 15 | 16.09 | Fair | CLR | 13.9 | 11.1 | 83% | 75.82 | 1010.5 | |||||||
| 01 | 02:53 | SW 15 | 16.09 | Fair | CLR | 14.4 | 11.7 | 84% | 75.79 | 1010.3 | |||||||
| 01 | 01:53 | SW 19 | 16.09 | Fair | CLR | 14.4 | 11.7 | 84% | 75.77 | 1009.8 | |||||||
| 01 | 00:53 | SW 22 | 16.09 | Fair | CLR | 15 | 11.7 | 81% | 75.74 | 0.0 | |||||||
| 31 | 23:53 | SW 24 | 16.09 | Fair | CLR | 15 | 11.7 | 81% | 75.72 | 1009.4 | |||||||
| 31 | 22:53 | SW 26 | 16.09 | Fair | CLR | 15.6 | 11.7 | 28.9 | 15.6 | 78% | 75.69 | 1008.9 | |||||
| 31 | 21:53 | SW 24 | 16.09 | Fair | CLR | 16.1 | 12.2 | 78% | 75.64 | 1008.3 | |||||||
| 31 | 20:53 | SW 26 | 16.09 | Fair | CLR | 17.2 | 11.7 | 70% | 75.59 | 1007.7 | |||||||
| 31 | 19:53 | SW 24 | 16.09 | Fair | CLR | 20.6 | 11.1 | 55% | 75.54 | 1006.8 | |||||||
| 31 | 18:53 | SW 15 | 16.09 | Fair | CLR | 25 | 12.2 | 45% | 26 | 75.51 | 1006.6 | ||||||
| 31 | 17:53 | S 7 | 11.27 | Fair | CLR | 28.9 | 12.2 | 36% | 28 | 75.51 | 1006.5 | ||||||
| 31 | 16:53 | Vrbl 9 | 16.09 | Fair | CLR | 28.3 | 10 | 28.9 | 20.6 | 32% | 27 | 75.51 | 1006.6 | ||||
| 31 | 15:53 | Calm | 16.09 | Fair | CLR | 28.3 | 10.6 | 33% | 27 | 75.54 | 1007.0 | ||||||
| 31 | 14:53 | SW 7 | 14.48 | Fair | CLR | 26.7 | 10.6 | 37% | 26 | 75.59 | 1007.7 | ||||||
| 31 | 13:53 | S 7 | 16.09 | Fair | CLR | 25.6 | 11.1 | 40% | 26 | 75.64 | 1008.2 | ||||||
| 31 | 12:53 | NW 6 | 0.00 | Fair | CLR | 0 | 0 | 0% | 75.69 | 0.0 | |||||||
| 31 | 11:53 | Calm | 16.09 | Fair | CLR | 22.8 | 10.6 | 46% | 75.74 | 1009.7 | |||||||
| 31 | 10:53 | Vrbl 7 | 16.09 | Fair | CLR | 20.6 | 11.1 | 20.6 | 9.4 | 55% | 75.79 | 1010.3 | |||||
| 31 | 09:53 | Calm | 16.09 | Fair | CLR | 17.8 | 10.6 | 63% | 75.84 | 1010.9 | |||||||
| 31 | 08:53 | Calm | 16.09 | Fair | CLR | 15.6 | 10.6 | 72% | 75.87 | 1011.3 | |||||||
| 31 | 07:53 | SW 6 | 16.09 | Fair | CLR | 12.2 | 10 | 87% | 75.9 | 1011.6 | |||||||
| 31 | 06:53 | Calm | 16.09 | Fair | CLR | 10 | 8.3 | 89% | 75.9 | 1011.5 | |||||||
| 31 | 05:53 | Calm | 16.09 | Fair | CLR | 10 | 8.9 | 93% | 75.9 | 1011.7 | |||||||
| 31 | 04:53 | Calm | 16.09 | Fair | CLR | 10.6 | 8.9 | 16.7 | 10 | 89% | 75.92 | 1011.9 | |||||
| 31 | 03:53 | Calm | 16.09 | Fair | CLR | 10.6 | 8.9 | 89% | 75.95 | 1012.2 | |||||||
| 31 | 02:53 | Calm | 16.09 | Fair | CLR | 11.7 | 9.4 | 86% | 75.97 | 1012.6 | |||||||
| 31 | 01:53 | N 7 | 16.09 | Fair | CLR | 14.4 | 10 | 75% | 76 | 1013.0 | |||||||
| 31 | 00:53 | N 11 | 16.09 | Fair | CLR | 16.1 | 10.6 | 70% | 76.02 | 1013.5 | |||||||
| 30 | 23:53 | N 9 | 16.09 | Fair | CLR | 16.1 | 10.6 | 70% | 76.07 | 1014.0 | |||||||
| 30 | 22:53 | N 9 | 16.09 | Fair | CLR | 16.7 | 10.6 | 24.4 | 16.7 | 67% | 76.12 | 1014.6 | |||||
| 30 | 21:53 | N 11 | 16.09 | Fair | CLR | 17.8 | 10.6 | 63% | 76.15 | 1015.1 | |||||||
| 30 | 20:53 | N 11 | 16.09 | Fair | CLR | 18.9 | 10 | 56% | 76.17 | 1015.3 | |||||||
| 30 | 19:53 | N 19 | 16.09 | Fair | CLR | 20.6 | 10 | 51% | 76.15 | 1015.2 | |||||||
| 30 | 18:53 | NE 17 | 16.09 | Fair | CLR | 22.8 | 10 | 44% | 76.15 | 1015.2 | |||||||
| 30 | 17:53 | NE 19 | 16.09 | Fair | CLR | 24.4 | 10 | 40% | 25 | 76.2 | 1015.7 | ||||||
| 30 | 16:53 | N 15 | 16.09 | Fair | CLR | 23.9 | 9.4 | 24.4 | 17.8 | 40% | 25 | 76.23 | 1016.2 | ||||
| 30 | 15:53 | Vrbl 11 | 16.09 | Fair | CLR | 23.3 | 8.3 | 38% | 76.28 | 1016.9 | |||||||
| 30 | 14:53 | E 9 | 16.09 | Fair | CLR | 22.8 | 8.3 | 40% | 76.35 | 1018.0 | |||||||
| 30 | 13:53 | NE 13 G 30 | 16.09 | Fair | CLR | 21.7 | 7.8 | 41% | 76.43 | 1018.7 | |||||||
| 30 | 12:53 | NE 7 | 16.09 | Fair | CLR | 20.6 | 7.8 | 44% | 76.48 | 1019.5 | |||||||
| 30 | 11:53 | Calm | 16.09 | Partly Cloudy | SCT042 | 20 | 8.3 | 47% | 76.5 | 1020.0 | |||||||
| 30 | 10:53 | N 11 | 16.09 | Partly Cloudy | SCT038 | 19.4 | 8.9 | 19.4 | 6.1 | 51% | 76.53 | 1020.3 | |||||
| 30 | 09:53 | Calm | 16.09 | Fair | CLR | 16.1 | 9.4 | 65% | 76.56 | 1020.5 | |||||||
| 30 | 08:53 | Calm | 16.09 | Fair | CLR | 13.3 | 8.9 | 75% | 76.58 | 1020.7 | |||||||
| 30 | 07:53 | Calm | 16.09 | A Few Clouds | FEW043 | 10.6 | 8.3 | 86% | 76.58 | 1021.0 | |||||||
| 30 | 06:53 | W 6 | 16.09 | Overcast | OVC041 | 7.8 | 7.2 | 96% | 76.58 | 1020.9 | |||||||
| 30 | 05:53 | Calm | 16.09 | Fair | CLR | 7.2 | 6.1 | 93% | 76.56 | 1020.6 | |||||||
| 30 | 04:53 | Calm | 16.09 | Fair | CLR | 7.8 | 6.7 | 12.8 | 7.2 | 93% | 76.53 | 1020.4 | |||||
| 30 | 03:53 | Calm | 16.09 | Fair | CLR | 8.3 | 7.2 | 93% | 76.56 | 1020.5 | |||||||
| 30 | 02:53 | Calm | 16.09 | Fair | CLR | 8.3 | 7.2 | 93% | 76.53 | 1020.4 | |||||||
| 30 | 01:53 | Calm | 16.09 | Fair | CLR | 8.9 | 7.8 | 93% | 76.53 | 1020.3 | |||||||
| 30 | 00:53 | Calm | 16.09 | Fair | CLR | 10 | 7.8 | 86% | 76.53 | 1020.4 | |||||||
| 29 | 23:53 | Calm | 16.09 | Fair | CLR | 11.7 | 7.8 | 77% | 76.53 | 1020.2 | |||||||
| 29 | 22:53 | W 7 | 16.09 | Fair | CLR | 12.8 | 8.3 | 23.3 | 12.2 | 74% | 76.53 | 1020.1 | |||||
| 29 | 21:53 | Calm | 16.09 | Fair | CLR | 13.3 | 8.3 | 72% | 76.5 | 1020.0 | |||||||
| 29 | 20:53 | NW 11 | 16.09 | Fair | CLR | 16.7 | 8.9 | 60% | 76.48 | 1019.4 | |||||||
| 29 | 19:53 | NW 15 | 16.09 | Fair | CLR | 18.3 | 8.3 | 52% | 76.45 | 1019.1 | |||||||
| 29 | 18:53 | NW 15 | 16.09 | Fair | CLR | 20.6 | 6.7 | 41% | 76.43 | 1018.6 | |||||||
| 29 | 17:53 | NW 22 | 16.09 | Fair | CLR | 21.7 | 5.6 | 35% | 76.4 | 1018.5 | |||||||
| 29 | 16:53 | W 19 | 16.09 | Overcast | BKN060 OVC075 | 23.3 | 7.2 | 23.9 | 17.8 | 36% | 76.4 | 1018.3 | |||||
| 29 | 15:53 | W 22 | 16.09 | Mostly Cloudy | BKN085 | 23.3 | 7.8 | 37% | 76.4 | 1018.5 | |||||||
| 29 | 14:53 | W 15 | 16.09 | Partly Cloudy | FEW055 SCT085 | 21.1 | 7.8 | 42% | 76.43 | 1018.7 | |||||||
| 29 | 13:53 | SW 20 | 16.09 | Mostly Cloudy | FEW065 BKN080 | 22.2 | 7.8 | 40% | 76.4 | 1018.6 | |||||||
| 29 | 12:53 | SW 17 | 16.09 | Overcast | SCT048 OVC065 | 20.6 | 8.3 | 45% | 76.43 | 1018.9 | |||||||
| Date | Time (pdt) | Wind (kph) | Vis. (km) | Weather | Sky Cond. | Air | Dwpt | Max. | Min. | Relative Humidity | Wind Chill (°C) | Heat Index (°C) | altimeter (cm) | sea level (mb) | 1 hr | 3 hr | 6 hr |
| 6 hour | |||||||||||||||||
| Temperature (ºC) | Pressure | Precipitation (cm) | |||||||||||||||